sensor_id;sensor_type;location;lat;lon;timestamp;P1;durP1;ratioP1;P2;durP2;ratioP2
21266;SDS011;10791;53.108;18.326;2024-02-23T00:03:15;9.80;;;5.93;;
21266;SDS011;10791;53.108;18.326;2024-02-23T00:08:18;14.27;;;5.80;;
21266;SDS011;10791;53.108;18.326;2024-02-23T00:13:21;8.47;;;5.00;;
21266;SDS011;10791;53.108;18.326;2024-02-23T00:18:25;12.20;;;5.87;;
21266;SDS011;10791;53.108;18.326;2024-02-23T00:23:28;8.27;;;5.13;;
21266;SDS011;10791;53.108;18.326;2024-02-23T00:28:31;14.83;;;6.83;;
21266;SDS011;10791;53.108;18.326;2024-02-23T00:33:34;11.90;;;5.60;;
21266;SDS011;10791;53.108;18.326;2024-02-23T00:38:39;10.60;;;5.63;;
21266;SDS011;10791;53.108;18.326;2024-02-23T00:43:42;10.00;;;5.67;;
21266;SDS011;10791;53.108;18.326;2024-02-23T00:48:45;11.47;;;5.60;;
21266;SDS011;10791;53.108;18.326;2024-02-23T00:53:47;10.67;;;5.10;;
21266;SDS011;10791;53.108;18.326;2024-02-23T00:58:50;10.03;;;5.23;;
21266;SDS011;10791;53.108;18.326;2024-02-23T01:03:54;8.10;;;5.20;;
21266;SDS011;10791;53.108;18.326;2024-02-23T01:09:00;9.03;;;5.07;;
21266;SDS011;10791;53.108;18.326;2024-02-23T01:14:03;9.30;;;4.67;;
21266;SDS011;10791;53.108;18.326;2024-02-23T01:19:06;8.70;;;5.03;;
21266;SDS011;10791;53.108;18.326;2024-02-23T01:24:09;8.93;;;5.07;;
21266;SDS011;10791;53.108;18.326;2024-02-23T01:29:12;8.90;;;4.23;;
21266;SDS011;10791;53.108;18.326;2024-02-23T01:34:16;12.73;;;5.80;;
21266;SDS011;10791;53.108;18.326;2024-02-23T01:39:19;9.23;;;5.90;;
21266;SDS011;10791;53.108;18.326;2024-02-23T01:44:21;13.63;;;6.07;;
21266;SDS011;10791;53.108;18.326;2024-02-23T01:49:25;7.67;;;4.23;;
21266;SDS011;10791;53.108;18.326;2024-02-23T01:54:31;8.87;;;5.00;;
21266;SDS011;10791;53.108;18.326;2024-02-23T01:59:36;9.00;;;5.07;;
21266;SDS011;10791;53.108;18.326;2024-02-23T02:04:41;8.53;;;4.47;;
21266;SDS011;10791;53.108;18.326;2024-02-23T02:09:43;11.17;;;5.03;;
21266;SDS011;10791;53.108;18.326;2024-02-23T02:14:46;11.10;;;4.97;;
21266;SDS011;10791;53.108;18.326;2024-02-23T02:19:49;12.23;;;4.43;;
21266;SDS011;10791;53.108;18.326;2024-02-23T02:24:52;8.50;;;5.43;;
21266;SDS011;10791;53.108;18.326;2024-02-23T02:29:56;9.13;;;4.07;;
21266;SDS011;10791;53.108;18.326;2024-02-23T02:35:00;9.90;;;5.57;;
21266;SDS011;10791;53.108;18.326;2024-02-23T02:40:03;11.23;;;5.03;;
21266;SDS011;10791;53.108;18.326;2024-02-23T02:45:07;9.03;;;5.03;;
21266;SDS011;10791;53.108;18.326;2024-02-23T02:50:10;11.07;;;5.90;;
21266;SDS011;10791;53.108;18.326;2024-02-23T02:55:13;11.00;;;5.97;;
21266;SDS011;10791;53.108;18.326;2024-02-23T03:00:16;10.67;;;5.73;;
21266;SDS011;10791;53.108;18.326;2024-02-23T03:05:19;6.50;;;3.43;;
21266;SDS011;10791;53.108;18.326;2024-02-23T03:10:22;8.70;;;4.73;;
21266;SDS011;10791;53.108;18.326;2024-02-23T03:15:25;8.77;;;4.33;;
21266;SDS011;10791;53.108;18.326;2024-02-23T03:20:29;9.57;;;4.77;;
21266;SDS011;10791;53.108;18.326;2024-02-23T03:25:32;7.40;;;4.43;;
21266;SDS011;10791;53.108;18.326;2024-02-23T03:30:36;10.60;;;5.73;;
21266;SDS011;10791;53.108;18.326;2024-02-23T03:35:39;7.07;;;4.20;;
21266;SDS011;10791;53.108;18.326;2024-02-23T03:40:41;6.43;;;3.90;;
21266;SDS011;10791;53.108;18.326;2024-02-23T03:45:44;7.47;;;4.10;;
21266;SDS011;10791;53.108;18.326;2024-02-23T03:50:47;7.00;;;3.93;;
21266;SDS011;10791;53.108;18.326;2024-02-23T03:55:50;8.50;;;4.00;;
21266;SDS011;10791;53.108;18.326;2024-02-23T04:00:53;8.03;;;4.40;;
21266;SDS011;10791;53.108;18.326;2024-02-23T04:05:56;9.17;;;4.60;;
21266;SDS011;10791;53.108;18.326;2024-02-23T04:11:00;7.57;;;3.73;;
21266;SDS011;10791;53.108;18.326;2024-02-23T04:16:03;8.50;;;3.80;;
21266;SDS011;10791;53.108;18.326;2024-02-23T04:21:06;5.10;;;3.03;;
21266;SDS011;10791;53.108;18.326;2024-02-23T04:26:09;5.90;;;3.30;;
21266;SDS011;10791;53.108;18.326;2024-02-23T04:31:12;4.73;;;2.90;;
21266;SDS011;10791;53.108;18.326;2024-02-23T04:36:18;4.07;;;2.27;;
21266;SDS011;10791;53.108;18.326;2024-02-23T04:41:22;4.83;;;2.77;;
21266;SDS011;10791;53.108;18.326;2024-02-23T04:46:27;4.37;;;3.10;;
21266;SDS011;10791;53.108;18.326;2024-02-23T04:51:30;3.90;;;2.17;;
21266;SDS011;10791;53.108;18.326;2024-02-23T04:56:33;4.73;;;2.73;;
21266;SDS011;10791;53.108;18.326;2024-02-23T05:01:37;7.50;;;2.80;;
21266;SDS011;10791;53.108;18.326;2024-02-23T05:06:40;5.07;;;2.40;;
21266;SDS011;10791;53.108;18.326;2024-02-23T05:11:45;4.33;;;2.57;;
21266;SDS011;10791;53.108;18.326;2024-02-23T05:16:50;4.73;;;2.37;;
21266;SDS011;10791;53.108;18.326;2024-02-23T05:21:53;3.17;;;1.93;;
21266;SDS011;10791;53.108;18.326;2024-02-23T05:26:56;3.57;;;2.00;;
21266;SDS011;10791;53.108;18.326;2024-02-23T05:32:00;3.10;;;1.70;;
21266;SDS011;10791;53.108;18.326;2024-02-23T05:37:03;4.57;;;1.83;;
21266;SDS011;10791;53.108;18.326;2024-02-23T05:42:06;3.43;;;2.00;;
21266;SDS011;10791;53.108;18.326;2024-02-23T05:47:09;3.33;;;1.90;;
21266;SDS011;10791;53.108;18.326;2024-02-23T05:52:13;6.97;;;1.77;;
21266;SDS011;10791;53.108;18.326;2024-02-23T05:57:17;4.97;;;2.03;;
21266;SDS011;10791;53.108;18.326;2024-02-23T06:02:20;5.00;;;1.53;;
21266;SDS011;10791;53.108;18.326;2024-02-23T06:07:24;2.93;;;1.83;;
21266;SDS011;10791;53.108;18.326;2024-02-23T06:12:32;4.03;;;1.70;;
21266;SDS011;10791;53.108;18.326;2024-02-23T06:17:35;2.53;;;1.40;;
21266;SDS011;10791;53.108;18.326;2024-02-23T06:22:38;3.67;;;1.60;;
21266;SDS011;10791;53.108;18.326;2024-02-23T06:27:41;4.27;;;2.13;;
21266;SDS011;10791;53.108;18.326;2024-02-23T06:32:44;5.47;;;2.13;;
21266;SDS011;10791;53.108;18.326;2024-02-23T06:37:48;2.17;;;1.10;;
21266;SDS011;10791;53.108;18.326;2024-02-23T06:42:52;1.57;;;0.97;;
21266;SDS011;10791;53.108;18.326;2024-02-23T06:47:55;1.90;;;1.13;;
21266;SDS011;10791;53.108;18.326;2024-02-23T06:52:58;3.43;;;1.10;;
21266;SDS011;10791;53.108;18.326;2024-02-23T06:58:02;1.67;;;1.03;;
21266;SDS011;10791;53.108;18.326;2024-02-23T07:03:09;2.23;;;1.17;;
21266;SDS011;10791;53.108;18.326;2024-02-23T07:08:13;1.60;;;1.00;;
21266;SDS011;10791;53.108;18.326;2024-02-23T07:13:16;2.87;;;1.17;;
21266;SDS011;10791;53.108;18.326;2024-02-23T07:18:20;3.27;;;1.30;;
21266;SDS011;10791;53.108;18.326;2024-02-23T07:23:24;1.97;;;1.20;;
21266;SDS011;10791;53.108;18.326;2024-02-23T07:28:27;2.83;;;1.37;;
21266;SDS011;10791;53.108;18.326;2024-02-23T07:33:31;2.37;;;1.10;;
21266;SDS011;10791;53.108;18.326;2024-02-23T07:38:35;2.93;;;0.97;;
21266;SDS011;10791;53.108;18.326;2024-02-23T07:43:38;3.77;;;1.07;;
21266;SDS011;10791;53.108;18.326;2024-02-23T07:48:42;1.77;;;0.80;;
21266;SDS011;10791;53.108;18.326;2024-02-23T07:53:45;2.17;;;1.13;;
21266;SDS011;10791;53.108;18.326;2024-02-23T07:58:48;2.10;;;1.10;;
21266;SDS011;10791;53.108;18.326;2024-02-23T08:03:52;3.47;;;1.17;;
21266;SDS011;10791;53.108;18.326;2024-02-23T08:08:55;0.50;;;0.37;;
21266;SDS011;10791;53.108;18.326;2024-02-23T08:13:59;1.27;;;0.50;;
21266;SDS011;10791;53.108;18.326;2024-02-23T08:19:04;0.93;;;0.70;;
21266;SDS011;10791;53.108;18.326;2024-02-23T08:24:07;0.93;;;0.30;;
21266;SDS011;10791;53.108;18.326;2024-02-23T08:29:10;0.70;;;0.40;;
21266;SDS011;10791;53.108;18.326;2024-02-23T08:34:13;2.00;;;0.53;;
21266;SDS011;10791;53.108;18.326;2024-02-23T08:39:17;0.37;;;0.37;;
21266;SDS011;10791;53.108;18.326;2024-02-23T08:44:20;0.40;;;0.40;;
21266;SDS011;10791;53.108;18.326;2024-02-23T08:49:24;2.90;;;0.50;;
21266;SDS011;10791;53.108;18.326;2024-02-23T08:54:30;1.90;;;0.43;;
21266;SDS011;10791;53.108;18.326;2024-02-23T08:59:33;0.90;;;0.33;;
21266;SDS011;10791;53.108;18.326;2024-02-23T09:04:37;0.80;;;0.50;;
21266;SDS011;10791;53.108;18.326;2024-02-23T09:09:40;5.17;;;1.17;;
21266;SDS011;10791;53.108;18.326;2024-02-23T09:14:43;1.00;;;0.60;;
21266;SDS011;10791;53.108;18.326;2024-02-23T09:19:47;4.27;;;0.60;;
21266;SDS011;10791;53.108;18.326;2024-02-23T09:24:50;1.40;;;0.50;;
21266;SDS011;10791;53.108;18.326;2024-02-23T09:29:53;1.33;;;0.47;;
21266;SDS011;10791;53.108;18.326;2024-02-23T09:34:56;1.93;;;0.60;;
21266;SDS011;10791;53.108;18.326;2024-02-23T09:40:01;1.33;;;0.80;;
21266;SDS011;10791;53.108;18.326;2024-02-23T09:45:05;1.13;;;0.60;;
21266;SDS011;10791;53.108;18.326;2024-02-23T09:50:09;0.53;;;0.43;;
21266;SDS011;10791;53.108;18.326;2024-02-23T09:55:14;3.63;;;0.60;;
21266;SDS011;10791;53.108;18.326;2024-02-23T10:00:18;1.30;;;0.50;;
21266;SDS011;10791;53.108;18.326;2024-02-23T10:05:28;3.80;;;0.70;;
21266;SDS011;10791;53.108;18.326;2024-02-23T10:10:40;1.13;;;0.63;;
21266;SDS011;10791;53.108;18.326;2024-02-23T10:15:44;3.37;;;0.70;;
21266;SDS011;10791;53.108;18.326;2024-02-23T10:21:08;1.70;;;0.70;;
21266;SDS011;10791;53.108;18.326;2024-02-23T10:26:12;2.80;;;1.10;;
21266;SDS011;10791;53.108;18.326;2024-02-23T10:31:16;0.80;;;0.50;;
21266;SDS011;10791;53.108;18.326;2024-02-23T10:36:20;1.37;;;0.57;;
21266;SDS011;10791;53.108;18.326;2024-02-23T10:41:25;2.23;;;0.20;;
21266;SDS011;10791;53.108;18.326;2024-02-23T10:46:30;1.00;;;0.33;;
21266;SDS011;10791;53.108;18.326;2024-02-23T10:51:35;1.13;;;0.30;;
21266;SDS011;10791;53.108;18.326;2024-02-23T10:56:40;0.90;;;0.40;;
21266;SDS011;10791;53.108;18.326;2024-02-23T11:01:48;0.80;;;0.40;;
21266;SDS011;10791;53.108;18.326;2024-02-23T11:06:54;1.00;;;0.30;;
21266;SDS011;10791;53.108;18.326;2024-02-23T11:12:03;1.33;;;0.40;;
21266;SDS011;10791;53.108;18.326;2024-02-23T11:17:17;1.33;;;0.43;;
21266;SDS011;10791;53.108;18.326;2024-02-23T11:22:30;0.30;;;0.20;;
21266;SDS011;10791;53.108;18.326;2024-02-23T11:27:40;0.60;;;0.27;;
21266;SDS011;10791;53.108;18.326;2024-02-23T11:32:46;0.77;;;0.37;;
21266;SDS011;10791;53.108;18.326;2024-02-23T11:37:55;2.20;;;0.30;;
21266;SDS011;10791;53.108;18.326;2024-02-23T11:43:06;1.03;;;0.40;;
21266;SDS011;10791;53.108;18.326;2024-02-23T11:48:11;1.20;;;0.40;;
21266;SDS011;10791;53.108;18.326;2024-02-23T11:53:15;1.33;;;0.40;;
21266;SDS011;10791;53.108;18.326;2024-02-23T11:58:19;2.20;;;0.50;;
21266;SDS011;10791;53.108;18.326;2024-02-23T12:03:23;1.27;;;0.30;;
21266;SDS011;10791;53.108;18.326;2024-02-23T12:08:31;0.90;;;0.30;;
21266;SDS011;10791;53.108;18.326;2024-02-23T12:13:41;0.70;;;0.40;;
21266;SDS011;10791;53.108;18.326;2024-02-23T12:18:45;1.00;;;0.40;;
21266;SDS011;10791;53.108;18.326;2024-02-23T12:23:57;0.80;;;0.40;;
21266;SDS011;10791;53.108;18.326;2024-02-23T12:29:01;0.37;;;0.30;;
21266;SDS011;10791;53.108;18.326;2024-02-23T12:34:06;0.57;;;0.30;;
21266;SDS011;10791;53.108;18.326;2024-02-23T12:39:10;1.93;;;0.47;;
21266;SDS011;10791;53.108;18.326;2024-02-23T12:44:14;1.23;;;0.50;;
21266;SDS011;10791;53.108;18.326;2024-02-23T12:49:18;0.73;;;0.40;;
21266;SDS011;10791;53.108;18.326;2024-02-23T12:54:21;1.20;;;0.40;;
21266;SDS011;10791;53.108;18.326;2024-02-23T12:59:24;1.33;;;0.60;;
21266;SDS011;10791;53.108;18.326;2024-02-23T13:04:28;0.83;;;0.40;;
21266;SDS011;10791;53.108;18.326;2024-02-23T13:09:32;1.57;;;0.60;;
21266;SDS011;10791;53.108;18.326;2024-02-23T13:14:36;1.63;;;0.60;;
21266;SDS011;10791;53.108;18.326;2024-02-23T13:19:40;2.10;;;0.50;;
21266;SDS011;10791;53.108;18.326;2024-02-23T13:24:55;2.27;;;0.80;;
21266;SDS011;10791;53.108;18.326;2024-02-23T13:29:59;1.10;;;0.60;;
21266;SDS011;10791;53.108;18.326;2024-02-23T13:35:03;3.80;;;0.60;;
21266;SDS011;10791;53.108;18.326;2024-02-23T13:40:09;0.60;;;0.40;;
21266;SDS011;10791;53.108;18.326;2024-02-23T13:45:13;0.67;;;0.30;;
21266;SDS011;10791;53.108;18.326;2024-02-23T13:50:17;1.50;;;0.80;;
21266;SDS011;10791;53.108;18.326;2024-02-23T13:55:26;1.60;;;0.57;;
21266;SDS011;10791;53.108;18.326;2024-02-23T14:00:29;3.23;;;0.70;;
21266;SDS011;10791;53.108;18.326;2024-02-23T14:05:33;1.17;;;0.60;;
21266;SDS011;10791;53.108;18.326;2024-02-23T14:10:37;1.90;;;0.80;;
21266;SDS011;10791;53.108;18.326;2024-02-23T14:15:41;1.70;;;0.70;;
21266;SDS011;10791;53.108;18.326;2024-02-23T14:20:44;0.80;;;0.60;;
21266;SDS011;10791;53.108;18.326;2024-02-23T14:25:47;1.83;;;0.80;;
21266;SDS011;10791;53.108;18.326;2024-02-23T14:30:50;1.90;;;0.80;;
21266;SDS011;10791;53.108;18.326;2024-02-23T14:35:55;3.27;;;1.80;;
21266;SDS011;10791;53.108;18.326;2024-02-23T14:40:58;2.40;;;0.70;;
21266;SDS011;10791;53.108;18.326;2024-02-23T14:46:02;5.23;;;1.17;;
21266;SDS011;10791;53.108;18.326;2024-02-23T14:51:06;2.63;;;0.80;;
21266;SDS011;10791;53.108;18.326;2024-02-23T14:56:17;2.37;;;1.10;;
21266;SDS011;10791;53.108;18.326;2024-02-23T15:01:22;1.83;;;0.73;;
21266;SDS011;10791;53.108;18.326;2024-02-23T15:06:26;2.93;;;1.47;;
21266;SDS011;10791;53.108;18.326;2024-02-23T15:11:30;7.37;;;1.93;;
21266;SDS011;10791;53.108;18.326;2024-02-23T15:16:34;2.77;;;1.47;;
21266;SDS011;10791;53.108;18.326;2024-02-23T15:21:38;7.37;;;4.17;;
21266;SDS011;10791;53.108;18.326;2024-02-23T15:26:43;15.03;;;8.50;;
21266;SDS011;10791;53.108;18.326;2024-02-23T15:31:47;12.77;;;6.40;;
21266;SDS011;10791;53.108;18.326;2024-02-23T15:36:50;10.47;;;5.37;;
21266;SDS011;10791;53.108;18.326;2024-02-23T15:41:54;14.00;;;6.47;;
21266;SDS011;10791;53.108;18.326;2024-02-23T15:46:57;11.47;;;6.07;;
21266;SDS011;10791;53.108;18.326;2024-02-23T15:52:00;17.03;;;5.27;;
21266;SDS011;10791;53.108;18.326;2024-02-23T15:57:04;9.57;;;4.63;;
21266;SDS011;10791;53.108;18.326;2024-02-23T16:02:10;9.10;;;3.60;;
21266;SDS011;10791;53.108;18.326;2024-02-23T16:07:14;7.40;;;3.37;;
21266;SDS011;10791;53.108;18.326;2024-02-23T16:12:18;8.47;;;3.90;;
21266;SDS011;10791;53.108;18.326;2024-02-23T16:17:21;9.53;;;3.50;;
21266;SDS011;10791;53.108;18.326;2024-02-23T16:22:25;5.93;;;3.00;;
21266;SDS011;10791;53.108;18.326;2024-02-23T16:27:29;6.83;;;3.00;;
21266;SDS011;10791;53.108;18.326;2024-02-23T16:32:34;8.87;;;3.70;;
21266;SDS011;10791;53.108;18.326;2024-02-23T16:37:37;14.37;;;5.50;;
21266;SDS011;10791;53.108;18.326;2024-02-23T16:42:41;16.90;;;6.20;;
21266;SDS011;10791;53.108;18.326;2024-02-23T16:47:47;31.17;;;14.50;;
21266;SDS011;10791;53.108;18.326;2024-02-23T16:52:51;22.47;;;12.53;;
21266;SDS011;10791;53.108;18.326;2024-02-23T16:57:56;14.40;;;8.27;;
21266;SDS011;10791;53.108;18.326;2024-02-23T17:03:00;21.63;;;8.87;;
21266;SDS011;10791;53.108;18.326;2024-02-23T17:08:04;17.17;;;7.43;;
21266;SDS011;10791;53.108;18.326;2024-02-23T17:13:08;32.47;;;11.90;;
21266;SDS011;10791;53.108;18.326;2024-02-23T17:18:12;18.60;;;8.37;;
21266;SDS011;10791;53.108;18.326;2024-02-23T17:23:18;19.23;;;8.37;;
21266;SDS011;10791;53.108;18.326;2024-02-23T17:28:22;11.50;;;5.57;;
21266;SDS011;10791;53.108;18.326;2024-02-23T17:33:27;21.57;;;6.40;;
21266;SDS011;10791;53.108;18.326;2024-02-23T17:38:31;23.67;;;8.57;;
21266;SDS011;10791;53.108;18.326;2024-02-23T17:43:34;22.77;;;8.30;;
21266;SDS011;10791;53.108;18.326;2024-02-23T17:48:38;9.87;;;4.63;;
21266;SDS011;10791;53.108;18.326;2024-02-23T17:53:43;10.03;;;3.90;;
21266;SDS011;10791;53.108;18.326;2024-02-23T17:58:47;15.00;;;6.50;;
21266;SDS011;10791;53.108;18.326;2024-02-23T18:03:50;22.93;;;13.10;;
21266;SDS011;10791;53.108;18.326;2024-02-23T18:08:55;24.07;;;10.43;;
21266;SDS011;10791;53.108;18.326;2024-02-23T18:13:59;23.17;;;11.10;;
21266;SDS011;10791;53.108;18.326;2024-02-23T18:19:03;21.97;;;9.70;;
21266;SDS011;10791;53.108;18.326;2024-02-23T18:24:07;10.83;;;5.17;;
21266;SDS011;10791;53.108;18.326;2024-02-23T18:29:11;17.30;;;5.10;;
21266;SDS011;10791;53.108;18.326;2024-02-23T18:34:16;12.23;;;4.83;;
21266;SDS011;10791;53.108;18.326;2024-02-23T18:39:20;4.03;;;2.17;;
21266;SDS011;10791;53.108;18.326;2024-02-23T18:44:24;6.20;;;2.50;;
21266;SDS011;10791;53.108;18.326;2024-02-23T18:49:30;8.33;;;3.43;;
21266;SDS011;10791;53.108;18.326;2024-02-23T18:54:36;11.30;;;3.93;;
21266;SDS011;10791;53.108;18.326;2024-02-23T18:59:40;7.57;;;4.10;;
21266;SDS011;10791;53.108;18.326;2024-02-23T19:04:46;8.87;;;3.87;;
21266;SDS011;10791;53.108;18.326;2024-02-23T19:09:50;9.80;;;3.63;;
21266;SDS011;10791;53.108;18.326;2024-02-23T19:14:54;10.27;;;5.33;;
21266;SDS011;10791;53.108;18.326;2024-02-23T19:19:58;16.80;;;7.10;;
21266;SDS011;10791;53.108;18.326;2024-02-23T19:25:02;23.83;;;9.10;;
21266;SDS011;10791;53.108;18.326;2024-02-23T19:30:07;23.13;;;8.50;;
21266;SDS011;10791;53.108;18.326;2024-02-23T19:35:14;24.60;;;8.13;;
21266;SDS011;10791;53.108;18.326;2024-02-23T19:40:19;13.47;;;6.07;;
21266;SDS011;10791;53.108;18.326;2024-02-23T19:45:28;13.37;;;5.20;;
21266;SDS011;10791;53.108;18.326;2024-02-23T19:50:32;12.53;;;5.43;;
21266;SDS011;10791;53.108;18.326;2024-02-23T19:55:40;13.90;;;5.13;;
21266;SDS011;10791;53.108;18.326;2024-02-23T20:00:45;13.23;;;5.67;;
21266;SDS011;10791;53.108;18.326;2024-02-23T20:05:54;13.67;;;5.57;;
21266;SDS011;10791;53.108;18.326;2024-02-23T20:10:59;11.27;;;5.37;;
21266;SDS011;10791;53.108;18.326;2024-02-23T20:16:03;14.97;;;5.67;;
21266;SDS011;10791;53.108;18.326;2024-02-23T20:21:08;9.67;;;5.40;;
21266;SDS011;10791;53.108;18.326;2024-02-23T20:26:12;17.37;;;7.93;;
21266;SDS011;10791;53.108;18.326;2024-02-23T20:31:19;16.97;;;7.43;;
21266;SDS011;10791;53.108;18.326;2024-02-23T20:36:23;14.63;;;6.67;;
21266;SDS011;10791;53.108;18.326;2024-02-23T20:41:30;20.27;;;8.87;;
21266;SDS011;10791;53.108;18.326;2024-02-23T20:46:35;34.27;;;12.83;;
21266;SDS011;10791;53.108;18.326;2024-02-23T20:51:39;21.90;;;8.90;;
21266;SDS011;10791;53.108;18.326;2024-02-23T20:56:43;17.20;;;8.33;;
21266;SDS011;10791;53.108;18.326;2024-02-23T21:01:47;20.30;;;7.83;;
21266;SDS011;10791;53.108;18.326;2024-02-23T21:06:55;16.80;;;7.90;;
21266;SDS011;10791;53.108;18.326;2024-02-23T21:12:01;17.07;;;7.90;;
21266;SDS011;10791;53.108;18.326;2024-02-23T21:17:07;13.57;;;7.07;;
21266;SDS011;10791;53.108;18.326;2024-02-23T21:22:11;14.17;;;5.83;;
21266;SDS011;10791;53.108;18.326;2024-02-23T21:27:15;16.03;;;6.23;;
21266;SDS011;10791;53.108;18.326;2024-02-23T21:32:18;17.67;;;6.33;;
21266;SDS011;10791;53.108;18.326;2024-02-23T21:37:23;17.07;;;6.57;;
21266;SDS011;10791;53.108;18.326;2024-02-23T21:42:27;13.77;;;6.10;;
21266;SDS011;10791;53.108;18.326;2024-02-23T21:47:30;15.50;;;6.23;;
21266;SDS011;10791;53.108;18.326;2024-02-23T21:52:34;11.63;;;5.57;;
21266;SDS011;10791;53.108;18.326;2024-02-23T21:57:40;19.10;;;9.30;;
21266;SDS011;10791;53.108;18.326;2024-02-23T22:02:44;30.47;;;10.70;;
21266;SDS011;10791;53.108;18.326;2024-02-23T22:07:48;27.47;;;11.20;;
21266;SDS011;10791;53.108;18.326;2024-02-23T22:12:52;26.57;;;11.20;;
21266;SDS011;10791;53.108;18.326;2024-02-23T22:17:56;22.57;;;10.40;;
21266;SDS011;10791;53.108;18.326;2024-02-23T22:22:59;11.40;;;5.90;;
21266;SDS011;10791;53.108;18.326;2024-02-23T22:28:03;10.80;;;4.13;;
21266;SDS011;10791;53.108;18.326;2024-02-23T22:33:09;6.07;;;3.43;;
21266;SDS011;10791;53.108;18.326;2024-02-23T22:38:13;5.53;;;3.07;;
21266;SDS011;10791;53.108;18.326;2024-02-23T22:43:17;9.60;;;4.63;;
21266;SDS011;10791;53.108;18.326;2024-02-23T22:48:21;5.97;;;3.60;;
21266;SDS011;10791;53.108;18.326;2024-02-23T22:53:24;8.07;;;3.30;;
21266;SDS011;10791;53.108;18.326;2024-02-23T22:58:28;14.43;;;7.83;;
21266;SDS011;10791;53.108;18.326;2024-02-23T23:03:32;15.77;;;7.30;;
21266;SDS011;10791;53.108;18.326;2024-02-23T23:08:35;13.50;;;6.87;;
21266;SDS011;10791;53.108;18.326;2024-02-23T23:13:39;11.90;;;6.37;;
21266;SDS011;10791;53.108;18.326;2024-02-23T23:18:42;9.03;;;4.77;;
21266;SDS011;10791;53.108;18.326;2024-02-23T23:23:46;11.53;;;4.83;;
21266;SDS011;10791;53.108;18.326;2024-02-23T23:28:49;11.83;;;4.87;;
21266;SDS011;10791;53.108;18.326;2024-02-23T23:33:53;11.77;;;4.80;;
21266;SDS011;10791;53.108;18.326;2024-02-23T23:38:58;11.27;;;5.00;;
21266;SDS011;10791;53.108;18.326;2024-02-23T23:44:02;7.37;;;4.20;;
21266;SDS011;10791;53.108;18.326;2024-02-23T23:49:06;12.03;;;4.27;;
21266;SDS011;10791;53.108;18.326;2024-02-23T23:54:09;10.30;;;4.87;;
21266;SDS011;10791;53.108;18.326;2024-02-23T23:59:12;10.70;;;4.67;;
